createdAt,value
2024-01-22T00:05:02.367Z,4.36
2024-01-22T00:10:05.894Z,4.46
2024-01-22T00:15:11.324Z,4.61
2024-01-22T00:20:14.492Z,4.59
2024-01-22T00:25:17.941Z,4.40
2024-01-22T00:30:22.584Z,4.30
2024-01-22T00:35:25.910Z,4.39
2024-01-22T00:40:29.196Z,4.32
2024-01-22T00:45:33.851Z,4.39
2024-01-22T00:50:37.286Z,4.22
2024-01-22T00:55:40.667Z,4.08
2024-01-22T01:00:45.417Z,4.06
2024-01-22T01:05:49.032Z,4.16
2024-01-22T01:10:52.264Z,3.97
2024-01-22T01:15:56.840Z,4.15
2024-01-22T01:21:00.129Z,4.09
2024-01-22T01:26:03.531Z,4.15
2024-01-22T01:31:08.364Z,4.27
2024-01-22T01:36:11.961Z,4.28
2024-01-22T01:41:15.242Z,4.33
2024-01-22T01:46:19.874Z,4.59
2024-01-22T01:51:23.407Z,4.63
2024-01-22T01:56:26.714Z,4.90
2024-01-22T02:01:31.368Z,4.73
2024-01-22T02:06:34.643Z,4.76
2024-01-22T02:11:38.074Z,4.67
2024-01-22T02:16:44.406Z,4.68
2024-01-22T02:21:48.817Z,4.86
2024-01-22T02:26:53.880Z,4.94
2024-01-22T02:31:57.818Z,4.88
2024-01-22T02:37:01.094Z,4.98
2024-01-22T02:42:06.302Z,4.95
2024-01-22T02:47:09.551Z,5.22
2024-01-22T02:52:12.735Z,5.08
2024-01-22T02:57:17.878Z,4.84
2024-01-22T03:02:21.191Z,4.89
2024-01-22T03:07:24.469Z,4.97
2024-01-22T03:12:29.302Z,4.99
2024-01-22T03:17:32.556Z,5.07
2024-01-22T03:22:35.906Z,5.10
2024-01-22T03:27:40.482Z,5.11
2024-01-22T03:32:43.875Z,5.12
2024-01-22T03:37:47.239Z,5.15
2024-01-22T03:42:51.839Z,4.96
2024-01-22T03:47:55.225Z,4.83
2024-01-22T03:52:58.736Z,4.94
2024-01-22T03:58:03.553Z,4.76
2024-01-22T04:03:07.466Z,4.82
2024-01-22T04:08:10.816Z,4.61
2024-01-22T04:13:15.499Z,4.75
2024-01-22T04:18:18.949Z,4.81
2024-01-22T04:23:22.425Z,4.63
2024-01-22T04:28:27.330Z,4.92
2024-01-22T04:33:30.888Z,4.85
2024-01-22T04:38:34.546Z,5.00
2024-01-22T04:43:39.267Z,5.07
2024-01-22T04:48:42.807Z,5.03
2024-01-22T04:53:46.209Z,4.96
2024-01-22T04:58:51.087Z,4.84
2024-01-22T05:03:54.557Z,5.07
2024-01-22T05:08:57.968Z,4.69
2024-01-22T05:14:04.559Z,4.57
2024-01-22T05:19:08.145Z,4.48
2024-01-22T05:24:11.470Z,4.46
2024-01-22T05:29:16.245Z,4.69
2024-01-22T05:34:19.574Z,4.47
2024-01-22T05:39:23.120Z,4.52
2024-01-22T05:44:28.208Z,4.45
2024-01-22T05:49:31.535Z,4.65
2024-01-22T05:54:35.008Z,4.51
2024-01-22T05:59:40.939Z,4.33
2024-01-22T06:04:44.562Z,4.21
2024-01-22T06:09:55.036Z,4.40
2024-01-22T06:15:06.972Z,4.66
2024-01-22T06:20:11.345Z,4.49
2024-01-22T06:25:15.166Z,4.50
2024-01-22T06:30:20.097Z,4.60
2024-01-22T06:35:23.436Z,4.70
2024-01-22T06:40:26.605Z,4.85
2024-01-22T06:45:31.518Z,4.64
2024-01-22T06:50:34.862Z,5.45
2024-01-22T06:55:38.131Z,5.38
2024-01-22T07:00:42.804Z,5.66
2024-01-22T07:05:46.447Z,5.78
2024-01-22T07:10:50.347Z,5.76
2024-01-22T07:15:55.051Z,5.69
2024-01-22T07:20:58.389Z,5.85
2024-01-22T07:26:01.794Z,5.71
2024-01-22T07:31:06.570Z,5.89
2024-01-22T07:36:10.483Z,5.87
2024-01-22T07:41:13.912Z,6.12
2024-01-22T07:46:18.960Z,5.85
2024-01-22T07:51:22.344Z,6.21
2024-01-22T07:56:25.801Z,6.18
2024-01-22T08:01:30.927Z,6.28
2024-01-22T08:06:34.281Z,6.13
2024-01-22T08:11:39.682Z,6.38
2024-01-22T08:16:45.466Z,6.32
2024-01-22T08:21:48.659Z,6.25
2024-01-22T08:26:52.148Z,6.16
2024-01-22T08:31:57.135Z,6.19
2024-01-22T08:37:00.532Z,6.22
2024-01-22T08:42:04.279Z,5.90
2024-01-22T08:47:08.936Z,6.04
2024-01-22T08:52:13.036Z,6.13
2024-01-22T08:57:17.843Z,6.37
2024-01-22T09:02:22.564Z,6.16
2024-01-22T09:07:25.896Z,6.05
2024-01-22T09:12:29.579Z,6.36
2024-01-22T09:17:34.878Z,6.28
2024-01-22T09:22:38.326Z,6.32
2024-01-22T09:27:41.799Z,6.48
2024-01-22T09:32:46.625Z,6.65
2024-01-22T09:37:50.978Z,6.75
2024-01-22T09:42:55.199Z,6.86
2024-01-22T09:48:01.114Z,6.77
2024-01-22T09:53:10.992Z,6.53
2024-01-22T09:58:18.850Z,6.65
2024-01-22T10:03:23.812Z,6.92
2024-01-22T10:08:27.146Z,7.16
2024-01-22T10:13:30.957Z,7.27
2024-01-22T10:18:37.310Z,7.31
2024-01-22T10:23:43.472Z,7.13
2024-01-22T10:28:46.852Z,7.22
2024-01-22T10:33:51.677Z,7.23
2024-01-22T10:39:05.581Z,7.25
2024-01-22T10:44:09.478Z,7.90
2024-01-22T10:49:14.566Z,7.97
2024-01-22T10:54:17.877Z,8.22
2024-01-22T10:59:23.297Z,8.35
2024-01-22T11:04:34.360Z,8.33
2024-01-22T11:09:37.932Z,8.32
2024-01-22T11:14:42.403Z,8.16
2024-01-22T11:19:47.338Z,8.04
2024-01-22T11:25:02.479Z,7.80
2024-01-22T11:30:28.682Z,8.07
2024-01-22T11:35:38.372Z,8.27
2024-01-22T11:40:49.323Z,8.32
2024-01-22T11:45:58.550Z,8.34
2024-01-22T11:51:08.381Z,7.94
2024-01-22T11:56:12.636Z,8.04
2024-01-22T12:01:15.976Z,8.34
2024-01-22T12:06:21.827Z,8.34
2024-01-22T12:11:25.413Z,8.31
2024-01-22T12:16:29.270Z,8.50
2024-01-22T12:21:34.284Z,8.44
2024-01-22T12:26:41.493Z,8.23
2024-01-22T12:31:45.183Z,7.89
2024-01-22T12:36:50.695Z,8.22
2024-01-22T12:41:54.276Z,7.99
2024-01-22T12:46:57.626Z,7.97
2024-01-22T12:52:11.650Z,8.29
2024-01-22T12:57:15.090Z,8.05
2024-01-22T13:02:18.382Z,8.01
2024-01-22T13:07:23.183Z,8.08
2024-01-22T13:12:26.901Z,8.24
2024-01-22T13:17:31.106Z,8.23
2024-01-22T13:22:37.598Z,8.19
2024-01-22T13:27:41.273Z,8.18
2024-01-22T13:32:45.127Z,8.18
2024-01-22T13:37:52.386Z,8.22
2024-01-22T13:42:55.514Z,8.07
2024-01-22T13:47:58.904Z,8.33
2024-01-22T13:53:07.431Z,8.03
2024-01-22T13:58:12.499Z,8.07
2024-01-22T14:03:17.185Z,7.80
2024-01-22T14:08:22.450Z,7.87
2024-01-22T14:13:26.616Z,7.91
2024-01-22T14:18:31.221Z,8.04
2024-01-22T14:23:36.467Z,8.03
2024-01-22T14:28:40.140Z,8.09
2024-01-22T14:33:44.529Z,7.84
2024-01-22T14:38:50.016Z,7.83
2024-01-22T14:43:53.697Z,7.91
2024-01-22T14:49:02.498Z,7.86
2024-01-22T14:54:14.936Z,7.89
2024-01-22T14:59:18.618Z,7.87
2024-01-22T15:04:22.362Z,7.82
2024-01-22T15:09:27.372Z,8.10
2024-01-22T15:14:30.925Z,8.06
2024-01-22T15:19:34.350Z,7.89
2024-01-22T15:24:39.267Z,7.71
2024-01-22T15:29:43.022Z,7.79
2024-01-22T15:34:46.496Z,7.63
2024-01-22T15:39:51.392Z,7.90
2024-01-22T15:44:54.768Z,7.84
2024-01-22T15:49:58.254Z,7.79
2024-01-22T15:55:03.041Z,7.43
2024-01-22T16:00:07.893Z,7.53
2024-01-22T16:05:15.497Z,7.61
2024-01-22T16:10:21.652Z,7.52
2024-01-22T16:15:25.392Z,7.51
2024-01-22T16:20:28.975Z,7.48
2024-01-22T16:25:33.977Z,7.30
2024-01-22T16:30:42.208Z,7.48
2024-01-22T16:35:46.739Z,7.48
2024-01-22T16:40:53.305Z,7.41
2024-01-22T16:45:56.759Z,7.23
2024-01-22T16:51:00.216Z,7.33
2024-01-22T16:56:08.047Z,7.28
2024-01-22T17:01:11.467Z,7.29
2024-01-22T17:06:14.826Z,7.47
2024-01-22T17:11:19.686Z,7.38
2024-01-22T17:16:23.350Z,7.41
2024-01-22T17:21:26.731Z,7.30
2024-01-22T17:26:31.682Z,7.42
2024-01-22T17:31:35.269Z,7.29
2024-01-22T17:36:38.749Z,7.05
2024-01-22T17:41:43.742Z,7.01
2024-01-22T17:46:47.031Z,7.04
2024-01-22T17:51:50.602Z,6.94
2024-01-22T17:56:55.402Z,6.75
2024-01-22T18:01:58.767Z,6.70
2024-01-22T18:07:02.496Z,6.64
2024-01-22T18:12:09.031Z,6.76
2024-01-22T18:17:12.282Z,6.83
2024-01-22T18:22:15.562Z,6.63
2024-01-22T18:27:20.137Z,6.62
2024-01-22T18:32:23.377Z,6.35
2024-01-22T18:37:26.649Z,6.40
2024-01-22T18:42:31.677Z,6.57
2024-01-22T18:47:35.199Z,6.66
2024-01-22T18:52:38.753Z,6.84
2024-01-22T18:57:43.427Z,6.89
2024-01-22T19:02:47.158Z,6.65
2024-01-22T19:07:52.269Z,6.88
2024-01-22T19:12:56.916Z,6.72
2024-01-22T19:18:00.396Z,6.84
2024-01-22T19:23:04.198Z,6.74
2024-01-22T19:28:09.167Z,6.56
2024-01-22T19:33:12.676Z,6.87
2024-01-22T19:38:16.386Z,6.78
2024-01-22T19:43:21.641Z,6.76
2024-01-22T19:48:26.320Z,6.67
2024-01-22T19:53:29.778Z,6.59
2024-01-22T19:58:34.370Z,6.58
2024-01-22T20:03:37.773Z,6.61
2024-01-22T20:08:41.477Z,6.82
2024-01-22T20:13:46.560Z,6.78
2024-01-22T20:18:52.355Z,6.82
2024-01-22T20:24:04.529Z,6.73
2024-01-22T20:29:12.591Z,6.67
2024-01-22T20:34:16.026Z,6.47
2024-01-22T20:39:19.424Z,6.60
2024-01-22T20:44:24.385Z,6.58
2024-01-22T20:49:27.896Z,6.36
2024-01-22T20:54:31.225Z,6.50
2024-01-22T20:59:37.353Z,6.29
2024-01-22T21:04:41.029Z,6.41
2024-01-22T21:09:44.609Z,6.34
2024-01-22T21:14:49.396Z,6.38
2024-01-22T21:19:53.167Z,6.17
2024-01-22T21:24:56.809Z,5.99
2024-01-22T21:30:02.332Z,6.02
2024-01-22T21:35:06.196Z,6.01
2024-01-22T21:40:11.680Z,6.05
2024-01-22T21:45:17.623Z,6.00
2024-01-22T21:50:21.113Z,6.02
2024-01-22T21:55:24.363Z,6.02
2024-01-22T22:00:29.097Z,5.96
2024-01-22T22:05:33.278Z,5.91
2024-01-22T22:10:36.604Z,5.84
2024-01-22T22:15:41.356Z,5.93
2024-01-22T22:20:44.640Z,5.55
2024-01-22T22:25:47.982Z,5.66
2024-01-22T22:30:53.855Z,5.59
2024-01-22T22:35:57.465Z,5.57
2024-01-22T22:41:00.760Z,5.45
2024-01-22T22:46:05.697Z,5.59
2024-01-22T22:51:09.047Z,5.61
2024-01-22T22:56:12.655Z,5.62
2024-01-22T23:01:17.333Z,5.63
2024-01-22T23:06:21.229Z,5.74
2024-01-22T23:11:25.858Z,5.82
2024-01-22T23:16:30.831Z,5.71
2024-01-22T23:21:34.148Z,5.65
2024-01-22T23:26:37.498Z,5.60
2024-01-22T23:31:42.362Z,5.56
2024-01-22T23:36:45.643Z,5.39
2024-01-22T23:41:48.884Z,5.60
2024-01-22T23:46:53.587Z,5.67
2024-01-22T23:51:56.884Z,5.63
2024-01-22T23:57:00.087Z,5.66
